Time;durP1;ratioP1;P1;durP2;ratioP2;P2;SDS_P1;SDS_P2;PMS_P1;PMS_P2;Temp;Humidity;BMP_temperature;BMP_pressure;BME280_temperature;BME280_humidity;BME280_pressure;Samples;Min_cycle;Max_cycle;Signal;HPM_P1;HPM_P2
2023/02/24 00:01:35;;;;;;;13.73;11.63;;;12.20;99.90;;;;;;5032714;28;20585;-67
2023/02/24 00:04:06;;;;;;;13.87;10.60;;;11.90;99.90;;;;;;5032710;28;20201;-66
2023/02/24 00:06:36;;;;;;;13.83;10.87;;;11.90;99.90;;;;;;5032553;28;20256;-66
2023/02/24 00:09:05;;;;;;;19.60;10.93;;;12.00;99.90;;;;;;5032366;28;20312;-66
2023/02/24 00:11:31;;;;;;;13.67;10.30;;;12.20;99.90;;;;;;5032650;28;20740;-66
2023/02/24 00:13:58;;;;;;;12.20;9.80;;;12.30;99.90;;;;;;5032494;28;20210;-66
2023/02/24 00:16:25;;;;;;;16.63;10.30;;;12.40;99.90;;;;;;5032134;28;20213;-67
2023/02/24 00:18:53;;;;;;;14.07;10.60;;;12.50;99.90;;;;;;5031949;28;20229;-66
2023/02/24 00:21:20;;;;;;;16.57;10.80;;;12.40;99.90;;;;;;5032518;28;20310;-67
2023/02/24 00:23:47;;;;;;;15.70;11.57;;;12.30;99.90;;;;;;5032382;28;20213;-68
2023/02/24 00:26:15;;;;;;;17.23;12.83;;;12.10;99.90;;;;;;5032535;28;20636;-69
2023/02/24 00:28:43;;;;;;;16.77;12.10;;;12.00;99.90;;;;;;5032290;28;20225;-68
2023/02/24 00:31:13;;;;;;;20.40;12.93;;;11.90;99.90;;;;;;5032391;28;20670;-69
2023/02/24 00:33:41;;;;;;;15.37;11.70;;;11.90;99.90;;;;;;5033462;28;20297;-68
2023/02/24 00:36:11;;;;;;;16.23;12.80;;;12.00;99.90;;;;;;5034471;28;20210;-68
2023/02/24 00:38:39;;;;;;;15.07;11.50;;;12.20;99.90;;;;;;5040634;28;20226;-68
2023/02/24 00:41:13;;;;;;;15.87;12.40;;;12.30;99.90;;;;;;5041979;28;20232;-68
2023/02/24 00:43:45;;;;;;;17.53;12.83;;;12.40;99.90;;;;;;5041599;28;20245;-68
2023/02/24 00:46:13;;;;;;;16.87;11.73;;;12.50;99.90;;;;;;5039972;28;20210;-68
2023/02/24 00:48:40;;;;;;;19.20;13.17;;;12.60;99.90;;;;;;5039603;28;20610;-68
2023/02/24 00:51:10;;;;;;;16.33;12.10;;;12.60;99.90;;;;;;5035482;28;20206;-68
2023/02/24 00:53:38;;;;;;;18.10;12.20;;;12.60;99.90;;;;;;5037213;28;20237;-68
2023/02/24 00:56:06;;;;;;;18.83;12.97;;;12.60;99.90;;;;;;5036390;28;20252;-68
2023/02/24 00:58:35;;;;;;;15.83;12.20;;;12.60;99.90;;;;;;5035809;28;20264;-67
2023/02/24 01:01:03;;;;;;;17.90;13.10;;;12.50;99.90;;;;;;5036110;28;20217;-68
2023/02/24 01:03:30;;;;;;;21.40;13.50;;;12.40;99.90;;;;;;5035998;28;20633;-68
2023/02/24 01:06:00;;;;;;;18.07;12.40;;;12.20;99.90;;;;;;5036338;28;20210;-68
2023/02/24 01:08:29;;;;;;;20.60;13.60;;;12.30;99.90;;;;;;5035569;28;20226;-67
2023/02/24 01:13:38;;;;;;;16.50;12.63;;;12.50;99.90;;;;;;5035316;28;20686;-66
2023/02/24 01:16:05;;;;;;;17.13;12.70;;;12.50;99.90;;;;;;5035688;28;20206;-66
2023/02/24 01:18:32;;;;;;;16.37;11.80;;;12.60;99.90;;;;;;5035152;28;20234;-65
2023/02/24 01:20:59;;;;;;;15.53;11.80;;;12.50;99.90;;;;;;5035503;28;20202;-66
2023/02/24 01:23:26;;;;;;;15.63;11.93;;;12.50;99.90;;;;;;5035734;28;20688;-66
2023/02/24 01:25:57;;;;;;;17.63;13.47;;;12.50;99.90;;;;;;5035922;28;20210;-67
2023/02/24 01:28:23;;;;;;;15.57;12.17;;;12.50;99.90;;;;;;5035441;28;20236;-68
2023/02/24 01:30:50;;;;;;;17.97;12.07;;;12.60;99.90;;;;;;5035480;28;20225;-68
2023/02/24 01:33:18;;;;;;;17.23;12.43;;;12.70;99.90;;;;;;5035388;28;20207;-68
2023/02/24 01:35:45;;;;;;;16.90;12.27;;;12.70;99.90;;;;;;5035381;28;20207;-68
2023/02/24 01:38:11;;;;;;;18.23;12.20;;;12.60;99.90;;;;;;5035207;28;20261;-68
2023/02/24 01:40:38;;;;;;;18.20;12.40;;;12.50;99.90;;;;;;5035314;28;20476;-68
2023/02/24 01:43:07;;;;;;;17.63;12.37;;;12.50;99.90;;;;;;5035301;28;20403;-68
2023/02/24 01:45:38;;;;;;;16.63;12.00;;;12.40;99.90;;;;;;5035350;28;20207;-68
2023/02/24 01:48:08;;;;;;;16.30;12.47;;;12.40;99.90;;;;;;5035249;28;20214;-68
2023/02/24 01:50:37;;;;;;;18.17;12.63;;;12.30;99.90;;;;;;5036334;28;20563;-67
2023/02/24 01:53:07;;;;;;;16.40;13.20;;;12.40;99.90;;;;;;5037356;28;20577;-68
2023/02/24 01:55:37;;;;;;;16.93;12.73;;;12.50;99.90;;;;;;5039916;28;20222;-67
2023/02/24 01:58:11;;;;;;;16.83;13.47;;;12.50;99.90;;;;;;5040669;28;20216;-68
2023/02/24 02:00:44;;;;;;;21.13;14.43;;;12.50;99.90;;;;;;5039813;28;20226;-67
2023/02/24 02:03:17;;;;;;;16.27;12.83;;;12.40;99.90;;;;;;5040448;28;20275;-68
2023/02/24 02:05:47;;;;;;;17.50;12.70;;;12.30;99.90;;;;;;5041496;28;20210;-68
2023/02/24 02:08:15;;;;;;;20.87;12.60;;;12.10;99.90;;;;;;5037703;28;20555;-67
2023/02/24 02:10:43;;;;;;;16.93;13.17;;;11.90;99.90;;;;;;5034904;28;20198;-67
2023/02/24 02:13:13;;;;;;;17.33;12.60;;;11.90;99.90;;;;;;5034874;28;20210;-68
2023/02/24 02:15:55;;;;;;;17.57;13.27;;;11.90;99.90;;;;;;5034597;28;20210;-68
2023/02/24 02:18:30;;;;;;;14.67;12.67;;;11.90;99.90;;;;;;5034566;28;20609;-68
2023/02/24 02:21:17;;;;;;;17.40;13.13;;;11.80;99.90;;;;;;5034763;28;20557;-68
2023/02/24 02:23:57;;;;;;;16.20;12.20;;;11.90;99.90;;;;;;5034449;28;20210;-67
2023/02/24 02:26:43;;;;;;;15.57;12.67;;;11.90;99.90;;;;;;5034637;28;20260;-68
2023/02/24 02:29:39;;;;;;;18.27;12.93;;;11.90;99.90;;;;;;5034002;28;20222;-68
2023/02/24 02:32:30;;;;;;;14.87;12.77;;;11.90;99.90;;;;;;5021798;28;20206;-67
2023/02/24 02:35:07;;;;;;;16.73;12.93;;;11.90;99.90;;;;;;5034579;28;20217;-68
2023/02/24 02:37:41;;;;;;;15.50;12.23;;;11.90;99.90;;;;;;5034235;28;20206;-66
2023/02/24 02:40:16;;;;;;;16.20;12.47;;;11.90;99.90;;;;;;5033913;28;20260;-67
2023/02/24 02:42:47;;;;;;;17.00;12.90;;;12.00;99.90;;;;;;5033914;28;20206;-66
2023/02/24 02:45:19;;;;;;;17.10;13.00;;;12.00;99.90;;;;;;5034401;28;20206;-67
2023/02/24 02:47:52;;;;;;;17.87;13.07;;;12.10;99.90;;;;;;5034198;28;20218;-66
2023/02/24 02:50:25;;;;;;;19.87;13.60;;;12.10;99.90;;;;;;5034157;28;20701;-67
2023/02/24 02:52:57;;;;;;;17.03;13.37;;;12.20;99.90;;;;;;5033747;28;20261;-65
2023/02/24 02:55:31;;;;;;;16.47;13.33;;;12.20;99.90;;;;;;5033932;28;20210;-65
2023/02/24 02:58:02;;;;;;;18.17;13.50;;;12.10;99.90;;;;;;5033795;28;20213;-66
2023/02/24 03:00:36;;;;;;;18.80;13.83;;;12.10;99.90;;;;;;5033945;28;20226;-68
2023/02/24 03:03:07;;;;;;;19.53;14.50;;;12.00;99.90;;;;;;5033614;28;20205;-67
2023/02/24 03:05:45;;;;;;;17.83;13.90;;;12.00;99.90;;;;;;5033412;28;20690;-68
2023/02/24 03:08:14;;;;;;;19.07;14.10;;;12.10;99.90;;;;;;5033564;28;20206;-67
2023/02/24 03:10:44;;;;;;;20.10;13.93;;;12.10;99.90;;;;;;5033111;28;20205;-68
2023/02/24 03:13:15;;;;;;;16.87;13.60;;;12.10;99.90;;;;;;5033419;28;20238;-67
2023/02/24 03:15:44;;;;;;;19.07;13.73;;;12.20;99.90;;;;;;5032200;28;20210;-68
2023/02/24 03:18:18;;;;;;;18.97;13.70;;;12.20;99.90;;;;;;5033000;28;20209;-68
2023/02/24 03:20:51;;;;;;;18.47;13.60;;;12.20;99.90;;;;;;5032948;28;20280;-67
2023/02/24 03:23:24;;;;;;;17.07;13.60;;;12.20;99.90;;;;;;5033061;28;20278;-68
2023/02/24 03:25:57;;;;;;;20.00;14.03;;;12.20;99.90;;;;;;5033003;28;20248;-68
2023/02/24 03:28:32;;;;;;;16.77;13.83;;;12.20;99.90;;;;;;5032836;28;20241;-64
2023/02/24 03:31:04;;;;;;;18.43;14.17;;;12.10;99.90;;;;;;5033067;28;20202;-66
2023/02/24 03:33:35;;;;;;;18.10;13.80;;;12.10;99.90;;;;;;5033010;28;20226;-66
2023/02/24 03:36:04;;;;;;;16.77;13.03;;;11.90;99.90;;;;;;5032918;28;20217;-67
2023/02/24 03:38:33;;;;;;;21.47;14.33;;;11.60;99.90;;;;;;5032697;28;20226;-69
2023/02/24 03:41:01;;;;;;;18.90;13.73;;;11.40;99.90;;;;;;5032633;28;20625;-69
2023/02/24 03:43:31;;;;;;;17.13;13.37;;;11.30;99.90;;;;;;5032742;28;20632;-69
2023/02/24 03:45:59;;;;;;;18.67;13.33;;;11.10;99.90;;;;;;5032856;28;20236;-69
2023/02/24 03:48:27;;;;;;;17.07;13.63;;;11.00;99.90;;;;;;5032548;28;20266;-63
2023/02/24 03:50:55;;;;;;;17.27;14.33;;;10.90;99.90;;;;;;5032775;28;20203;-66
2023/02/24 03:53:36;;;;;;;19.23;14.07;;;11.00;99.90;;;;;;5032532;28;20213;-66
2023/02/24 03:56:21;;;;;;;18.20;14.33;;;11.10;99.90;;;;;;5032740;28;20206;-67
2023/02/24 03:59:11;;;;;;;18.50;13.40;;;11.20;99.90;;;;;;5032271;28;20500;-66
2023/02/24 04:01:47;;;;;;;21.73;14.60;;;11.30;99.90;;;;;;5032287;28;20234;-66
2023/02/24 04:04:19;;;;;;;16.83;13.37;;;11.20;99.90;;;;;;5032696;28;20662;-66
2023/02/24 04:06:52;;;;;;;19.47;14.80;;;11.20;99.90;;;;;;5032605;28;20209;-67
2023/02/24 04:09:31;;;;;;;18.40;14.00;;;11.30;99.90;;;;;;5032104;28;20222;-67
2023/02/24 04:12:08;;;;;;;20.00;15.17;;;11.40;99.90;;;;;;5032258;28;20202;-67
2023/02/24 04:14:43;;;;;;;26.13;19.13;;;11.40;99.90;;;;;;5032073;28;20571;-66
2023/02/24 04:17:18;;;;;;;18.27;14.60;;;11.40;99.90;;;;;;5032353;28;20217;-67
2023/02/24 04:19:47;;;;;;;18.97;14.27;;;11.50;99.90;;;;;;5031948;28;20234;-66
2023/02/24 04:22:17;;;;;;;16.97;14.37;;;11.60;99.90;;;;;;5032143;28;20306;-65
2023/02/24 04:24:48;;;;;;;19.43;14.13;;;11.70;99.90;;;;;;5032075;28;20676;-67
2023/02/24 04:27:17;;;;;;;19.37;14.23;;;11.80;99.90;;;;;;5032002;28;20302;-67
2023/02/24 04:29:49;;;;;;;18.60;13.90;;;11.80;99.90;;;;;;5031851;28;20257;-67
2023/02/24 04:32:21;;;;;;;18.67;13.97;;;11.90;99.90;;;;;;5032108;28;20202;-67
2023/02/24 04:34:47;;;;;;;21.57;14.87;;;11.90;99.90;;;;;;5032014;28;20218;-67
2023/02/24 04:37:14;;;;;;;20.87;14.93;;;12.00;99.90;;;;;;5031922;28;20525;-67
2023/02/24 04:39:41;;;;;;;19.57;14.70;;;12.00;99.90;;;;;;5031660;28;20265;-66
2023/02/24 04:42:09;;;;;;;21.93;15.20;;;12.00;99.90;;;;;;5032022;28;20589;-67
2023/02/24 04:44:36;;;;;;;20.67;14.83;;;12.00;99.90;;;;;;5031833;28;20215;-67
2023/02/24 04:47:03;;;;;;;21.60;15.63;;;12.00;99.90;;;;;;5031866;28;20293;-65
2023/02/24 04:49:30;;;;;;;20.27;13.97;;;12.00;99.90;;;;;;5031430;28;20679;-67
2023/02/24 04:51:57;;;;;;;19.37;14.63;;;12.00;99.90;;;;;;5031601;28;20210;-67
2023/02/24 04:54:23;;;;;;;22.30;15.20;;;12.00;99.90;;;;;;5031809;28;20697;-66
2023/02/24 04:56:51;;;;;;;22.87;15.40;;;12.00;99.90;;;;;;5031788;28;20206;-68
2023/02/24 04:59:21;;;;;;;21.90;15.33;;;12.00;99.90;;;;;;5031647;28;20262;-67
2023/02/24 05:01:50;;;;;;;25.87;16.23;;;12.10;99.90;;;;;;5032014;28;20284;-67
2023/02/24 05:04:17;;;;;;;22.63;15.20;;;12.00;99.90;;;;;;5031724;28;20217;-68
2023/02/24 05:06:45;;;;;;;23.07;15.93;;;12.00;99.90;;;;;;5031935;28;20236;-68
2023/02/24 05:09:13;;;;;;;23.43;16.70;;;12.00;99.90;;;;;;5031558;28;20249;-67
2023/02/24 05:11:41;;;;;;;24.63;16.60;;;12.00;99.90;;;;;;5031759;28;20666;-68
2023/02/24 05:14:09;;;;;;;20.37;15.90;;;12.00;99.90;;;;;;5031543;28;20682;-68
2023/02/24 05:16:37;;;;;;;22.57;16.80;;;12.00;99.90;;;;;;5031436;28;20203;-67
2023/02/24 05:21:57;;;;;;;21.00;15.87;;;12.00;99.90;;;;;;5018568;28;20237;-68
2023/02/24 05:24:25;;;;;;;24.90;18.07;;;12.00;99.90;;;;;;5031589;28;20293;-67
2023/02/24 05:26:57;;;;;;;23.73;16.97;;;12.00;99.90;;;;;;5031828;28;20580;-67
2023/02/24 05:29:24;;;;;;;23.80;17.10;;;12.00;99.90;;;;;;5031138;28;20604;-67
2023/02/24 05:31:54;;;;;;;24.97;17.00;;;12.00;99.90;;;;;;5031595;28;20199;-67
2023/02/24 05:34:23;;;;;;;25.13;17.43;;;12.10;99.90;;;;;;5032180;28;20214;-69
2023/02/24 05:36:49;;;;;;;26.80;17.63;;;12.10;99.90;;;;;;5031876;28;20202;-69
2023/02/24 05:39:18;;;;;;;26.50;17.10;;;12.10;99.90;;;;;;5034175;28;20230;-65
2023/02/24 05:41:47;;;;;;;25.87;18.20;;;12.10;99.90;;;;;;5035269;28;20226;-65
2023/02/24 05:44:21;;;;;;;27.13;18.47;;;12.10;99.90;;;;;;5035757;28;20309;-66
2023/02/24 05:46:48;;;;;;;27.07;17.67;;;12.10;99.90;;;;;;5035575;28;20210;-67
2023/02/24 05:49:22;;;;;;;25.60;16.67;;;12.00;99.90;;;;;;5034830;28;20321;-68
2023/02/24 05:51:54;;;;;;;25.20;17.07;;;12.10;99.90;;;;;;5035287;28;20209;-68
2023/02/24 05:54:24;;;;;;;25.23;17.17;;;12.10;99.90;;;;;;5034967;28;20202;-68
2023/02/24 05:56:51;;;;;;;22.87;16.97;;;12.00;99.90;;;;;;5035000;28;20209;-67
2023/02/24 05:59:20;;;;;;;23.50;17.43;;;12.00;99.90;;;;;;5034465;28;20226;-68
2023/02/24 06:01:48;;;;;;;26.10;17.30;;;12.00;99.90;;;;;;5034964;28;20230;-68
2023/02/24 06:04:26;;;;;;;25.03;18.40;;;12.00;99.90;;;;;;5034694;28;20208;-67
2023/02/24 06:06:53;;;;;;;25.73;17.23;;;11.90;99.90;;;;;;5034553;28;20224;-68
2023/02/24 06:09:22;;;;;;;23.93;16.97;;;11.90;99.90;;;;;;5034507;28;20236;-68
2023/02/24 06:11:49;;;;;;;25.43;18.33;;;11.90;99.90;;;;;;5034469;28;20202;-68
2023/02/24 06:14:16;;;;;;;26.00;17.70;;;11.90;99.90;;;;;;5034662;28;20632;-68
2023/02/24 06:16:43;;;;;;;25.73;16.50;;;11.90;99.90;;;;;;5034782;28;20215;-68
2023/02/24 06:19:12;;;;;;;24.60;17.23;;;12.00;99.90;;;;;;5034414;28;20226;-69
2023/02/24 06:21:42;;;;;;;24.40;17.27;;;12.00;99.90;;;;;;5034261;28;20249;-69
2023/02/24 06:24:14;;;;;;;24.50;18.00;;;12.00;99.90;;;;;;5034162;28;20229;-69
2023/02/24 06:26:42;;;;;;;27.70;18.27;;;12.00;99.90;;;;;;5034509;28;20631;-69
2023/02/24 06:29:13;;;;;;;24.30;17.27;;;12.00;99.90;;;;;;5033793;28;20325;-69
2023/02/24 06:31:40;;;;;;;25.30;18.83;;;12.00;99.90;;;;;;5034029;28;20209;-68
2023/02/24 06:34:09;;;;;;;28.87;17.57;;;12.00;99.90;;;;;;5034213;28;20210;-68
2023/02/24 06:36:36;;;;;;;25.80;17.90;;;12.00;99.90;;;;;;5034045;28;20650;-68
2023/02/24 06:39:06;;;;;;;30.83;20.23;;;12.00;99.90;;;;;;5033710;28;20281;-68
2023/02/24 06:41:33;;;;;;;30.60;21.17;;;12.00;99.90;;;;;;5033915;28;20744;-68
2023/02/24 06:44:00;;;;;;;28.70;18.93;;;12.00;99.90;;;;;;5033806;28;20217;-68
2023/02/24 06:46:27;;;;;;;29.80;18.70;;;12.00;99.90;;;;;;5033609;28;20333;-69
2023/02/24 06:48:54;;;;;;;28.67;20.33;;;12.00;99.90;;;;;;5033236;28;20234;-68
2023/02/24 06:51:22;;;;;;;28.37;19.80;;;12.00;99.90;;;;;;5033596;28;20667;-68
2023/02/24 06:53:49;;;;;;;27.87;20.30;;;12.00;99.90;;;;;;5033713;28;20210;-68
2023/02/24 06:56:18;;;;;;;29.40;20.33;;;12.00;99.90;;;;;;5033423;28;20213;-68
2023/02/24 06:58:47;;;;;;;27.80;20.17;;;12.00;99.90;;;;;;5033372;28;20226;-68
2023/02/24 07:01:16;;;;;;;30.40;21.00;;;11.90;99.90;;;;;;5033657;28;20233;-72
2023/02/24 07:04:02;;;;;;;28.67;21.47;;;11.80;99.90;;;;;;5033695;28;20209;-66
2023/02/24 07:06:29;;;;;;;31.10;20.70;;;11.80;99.90;;;;;;5033383;28;20301;-66
2023/02/24 07:08:58;;;;;;;30.97;21.47;;;11.80;99.90;;;;;;5033655;28;20229;-67
2023/02/24 07:11:28;;;;;;;32.50;21.93;;;11.90;99.90;;;;;;5035138;28;20198;-66
2023/02/24 07:13:56;;;;;;;30.40;22.20;;;11.90;99.90;;;;;;5037396;28;20206;-67
2023/02/24 07:16:24;;;;;;;33.33;23.90;;;11.80;99.90;;;;;;5036190;28;20293;-70
2023/02/24 07:18:55;;;;;;;33.93;22.03;;;11.70;99.90;;;;;;5035987;28;20253;-68
2023/02/24 07:21:23;;;;;;;33.50;21.93;;;11.80;99.90;;;;;;5033913;28;20252;-67
2023/02/24 07:23:55;;;;;;;32.67;22.30;;;11.60;99.90;;;;;;5033079;28;20206;-68
2023/02/24 07:26:23;;;;;;;35.53;23.03;;;11.70;99.90;;;;;;5033065;28;20674;-68
2023/02/24 07:28:53;;;;;;;39.03;23.57;;;11.70;99.90;;;;;;5032878;28;20288;-68
2023/02/24 07:31:22;;;;;;;35.93;23.50;;;11.80;99.90;;;;;;5032831;28;20199;-68
2023/02/24 07:33:52;;;;;;;38.73;25.27;;;11.90;99.90;;;;;;5033034;28;20217;-67
2023/02/24 07:36:22;;;;;;;35.10;24.67;;;11.70;99.90;;;;;;5032548;28;20205;-68
2023/02/24 07:38:52;;;;;;;39.00;24.73;;;11.50;99.90;;;;;;5032909;28;20230;-68
2023/02/24 07:41:21;;;;;;;36.30;24.63;;;11.40;99.90;;;;;;5032834;28;20313;-68
2023/02/24 07:43:50;;;;;;;39.23;23.70;;;11.30;99.90;;;;;;5032862;28;20301;-67
2023/02/24 07:46:24;;;;;;;39.30;25.27;;;11.50;99.90;;;;;;5032664;28;20210;-68
2023/02/24 07:48:52;;;;;;;31.80;21.97;;;11.50;99.90;;;;;;5032300;28;20245;-67
2023/02/24 07:51:21;;;;;;;38.90;23.80;;;11.60;99.90;;;;;;5032544;28;20202;-67
2023/02/24 07:53:49;;;;;;;36.37;23.83;;;11.70;99.90;;;;;;5032491;28;20210;-66
2023/02/24 07:56:17;;;;;;;40.50;24.93;;;11.90;99.90;;;;;;5032250;28;20210;-67
2023/02/24 07:58:45;;;;;;;41.13;25.30;;;12.00;99.90;;;;;;5032595;28;20253;-67
2023/02/24 08:01:21;;;;;;;35.97;23.37;;;12.10;99.90;;;;;;5031317;28;20230;-66
2023/02/24 08:03:50;;;;;;;35.83;24.37;;;12.10;99.90;;;;;;5032505;28;20214;-66
2023/02/24 08:06:25;;;;;;;41.50;24.10;;;12.20;99.90;;;;;;5032454;28;20642;-67
2023/02/24 08:09:15;;;;;;;34.80;22.83;;;12.40;99.90;;;;;;5032166;28;20724;-67
2023/02/24 08:11:44;;;;;;;41.33;23.60;;;12.50;99.90;;;;;;5032160;28;20210;-67
2023/02/24 08:14:13;;;;;;;41.23;23.93;;;12.60;99.90;;;;;;5032097;28;20662;-67
2023/02/24 08:16:41;;;;;;;34.67;22.97;;;12.70;99.90;;;;;;5032475;28;20206;-65
2023/02/24 08:19:11;;;;;;;37.87;24.27;;;12.80;99.90;;;;;;5031846;28;20227;-67
2023/02/24 08:21:40;;;;;;;38.03;23.50;;;12.80;99.90;;;;;;5031897;28;20716;-66
2023/02/24 08:24:16;;;;;;;36.80;23.27;;;12.80;99.90;;;;;;5032206;28;20264;-66
2023/02/24 08:26:43;;;;;;;37.10;24.33;;;12.70;99.90;;;;;;5032360;28;20264;-66
2023/02/24 08:29:10;;;;;;;43.13;24.80;;;12.60;99.90;;;;;;5032071;28;20586;-67
2023/02/24 08:31:37;;;;;;;41.57;24.67;;;12.60;99.90;;;;;;5032891;28;20202;-67
2023/02/24 08:34:04;;;;;;;42.77;24.57;;;12.40;99.90;;;;;;5032599;28;20252;-68
2023/02/24 08:36:32;;;;;;;41.47;24.00;;;12.30;99.90;;;;;;5032800;28;20210;-66
2023/02/24 08:38:58;;;;;;;37.50;24.03;;;12.40;99.90;;;;;;5033940;28;20249;-66
2023/02/24 08:41:43;;;;;;;38.50;24.73;;;12.50;99.90;;;;;;5034888;28;20647;-67
2023/02/24 08:44:11;;;;;;;42.10;23.40;;;12.70;99.90;;;;;;5035635;28;20210;-67
2023/02/24 08:46:40;;;;;;;38.80;24.30;;;12.80;99.90;;;;;;5034262;28;20212;-67
2023/02/24 08:49:09;;;;;;;38.83;23.83;;;12.80;99.90;;;;;;5035100;28;20280;-69
2023/02/24 08:51:42;;;;;;;41.93;25.60;;;12.80;99.90;;;;;;5037030;28;20688;-68
2023/02/24 08:54:14;;;;;;;40.83;23.83;;;12.80;99.90;;;;;;5033972;28;20686;-66
2023/02/24 08:56:43;;;;;;;36.23;23.30;;;12.70;99.90;;;;;;5032763;28;20242;-66
2023/02/24 08:59:27;;;;;;;41.67;24.13;;;12.50;99.90;;;;;;5032014;28;20741;-67
2023/02/24 09:02:17;;;;;;;38.17;23.17;;;12.40;99.90;;;;;;5032593;28;20232;-68
2023/02/24 09:04:44;;;;;;;38.90;23.67;;;12.40;99.90;;;;;;5032615;28;20206;-68
2023/02/24 09:07:19;;;;;;;37.17;23.13;;;12.40;99.90;;;;;;5032759;28;20210;-68
2023/02/24 09:09:46;;;;;;;39.77;22.83;;;12.30;99.90;;;;;;5032551;28;20713;-69
2023/02/24 09:12:20;;;;;;;48.53;25.67;;;12.30;99.90;;;;;;5034081;28;20675;-67
2023/02/24 09:14:49;;;;;;;40.90;25.40;;;12.40;99.90;;;;;;5036514;28;20256;-68
2023/02/24 09:17:19;;;;;;;39.47;24.27;;;12.30;99.90;;;;;;5037673;28;20241;-68
2023/02/24 09:22:56;;;;;;;40.43;24.27;;;12.20;99.90;;;;;;5015725;28;20706;-63
2023/02/24 09:25:24;;;;;;;40.17;24.37;;;12.30;99.90;;;;;;5015619;28;20199;-61
2023/02/24 09:27:55;;;;;;;38.37;23.53;;;12.20;99.90;;;;;;5014856;28;20291;-61
2023/02/24 09:30:34;;;;;;;45.37;25.00;;;12.20;99.90;;;;;;5015122;28;20261;-61
2023/02/24 09:33:05;;;;;;;43.00;23.97;;;12.20;99.90;;;;;;5016944;28;20214;-61
2023/02/24 09:35:35;;;;;;;36.93;21.30;;;12.20;99.90;;;;;;5015950;28;20671;-61
2023/02/24 09:38:05;;;;;;;34.13;21.93;;;11.90;99.90;;;;;;5016568;28;20214;-61
2023/02/24 09:40:39;;;;;;;32.50;20.23;;;11.70;99.90;;;;;;5015174;28;20238;-62
2023/02/24 09:43:16;;;;;;;33.87;20.63;;;11.90;99.90;;;;;;5014466;28;20245;-62
2023/02/24 09:45:52;;;;;;;32.53;20.00;;;11.70;99.90;;;;;;5014167;28;20210;-62
2023/02/24 09:48:26;;;;;;;37.20;21.07;;;11.50;99.90;;;;;;5015318;28;20682;-62
2023/02/24 09:51:02;;;;;;;36.40;21.40;;;11.40;99.90;;;;;;5015874;28;20217;-62
2023/02/24 09:53:38;;;;;;;35.77;21.20;;;11.40;99.90;;;;;;5014471;28;20210;-62
2023/02/24 09:56:20;;;;;;;36.63;19.40;;;11.30;99.90;;;;;;5014503;28;20277;-63
2023/02/24 09:58:51;;;;;;;30.67;19.93;;;11.30;99.90;;;;;;5014361;28;20226;-62
2023/02/24 10:01:41;;;;;;;36.23;21.27;;;11.40;99.90;;;;;;5013739;28;20698;-61
2023/02/24 10:04:21;;;;;;;36.23;20.63;;;11.40;99.90;;;;;;5013900;28;20210;-61
2023/02/24 10:06:49;;;;;;;35.27;21.03;;;11.40;99.90;;;;;;5014002;28;20214;-61
2023/02/24 10:09:25;;;;;;;34.60;20.77;;;11.60;99.90;;;;;;5013419;28;20223;-61
2023/02/24 10:12:02;;;;;;;36.00;20.77;;;11.90;99.90;;;;;;5014269;28;20253;-61
2023/02/24 10:14:37;;;;;;;35.73;20.43;;;12.20;99.90;;;;;;5014026;28;20210;-61
2023/02/24 10:17:23;;;;;;;35.20;19.87;;;12.30;99.90;;;;;;5014214;28;20409;-62
2023/02/24 10:19:55;;;;;;;32.23;18.93;;;12.00;99.90;;;;;;5013440;28;20234;-61
2023/02/24 10:22:29;;;;;;;34.33;20.57;;;11.90;99.90;;;;;;5013463;28;20227;-61
2023/02/24 10:25:10;;;;;;;35.00;19.67;;;12.00;99.90;;;;;;5012896;28;20206;-63
2023/02/24 10:27:51;;;;;;;35.53;18.60;;;12.30;99.90;;;;;;5013870;28;20238;-64
2023/02/24 10:30:39;;;;;;;32.27;18.30;;;12.50;99.90;;;;;;5013311;28;20230;-63
2023/02/24 10:33:19;;;;;;;36.40;19.03;;;12.60;99.90;;;;;;5013189;28;20210;-63
2023/02/24 10:35:46;;;;;;;31.37;18.10;;;12.80;99.90;;;;;;5013002;28;20272;-62
2023/02/24 10:38:13;;;;;;;27.03;16.60;;;13.00;99.90;;;;;;5013222;28;20211;-64
2023/02/24 10:40:55;;;;;;;29.90;16.23;;;13.20;99.90;;;;;;5013141;28;20230;-63
2023/02/24 10:43:28;;;;;;;36.47;19.60;;;13.20;99.90;;;;;;5013107;28;20235;-62
2023/02/24 10:46:04;;;;;;;32.20;18.60;;;13.10;99.90;;;;;;5012945;28;20675;-64
2023/02/24 10:48:37;;;;;;;29.30;17.00;;;13.10;99.90;;;;;;5012994;28;20231;-64
2023/02/24 10:51:18;;;;;;;33.63;18.03;;;13.20;99.90;;;;;;5012910;28;20573;-64
2023/02/24 10:53:52;;;;;;;33.97;19.43;;;13.30;99.90;;;;;;5012994;28;20202;-62
2023/02/24 10:56:26;;;;;;;36.47;20.37;;;13.40;99.90;;;;;;5012548;28;20221;-61
2023/02/24 11:01:58;;;;;;;37.10;21.33;;;13.90;99.90;;;;;;5012534;28;20293;-60
2023/02/24 11:04:53;;;;;;;38.97;20.73;;;14.00;99.90;;;;;;5012326;28;20234;-59
2023/02/24 11:07:24;;;;;;;43.10;22.07;;;14.10;99.90;;;;;;5012397;28;20203;-60
2023/02/24 11:10:10;;;;;;;39.80;21.37;;;14.00;99.90;;;;;;5012173;28;20231;-59
2023/02/24 11:18:19;;;;;;;39.87;21.23;;;14.10;99.90;;;;;;5012455;28;20345;-62
2023/02/24 11:20:49;;;;;;;36.90;20.93;;;14.00;99.90;;;;;;5012168;28;20214;-63
2023/02/24 11:23:20;;;;;;;36.17;20.47;;;13.80;99.90;;;;;;5011946;28;20262;-63
2023/02/24 11:25:49;;;;;;;37.13;20.73;;;13.80;99.90;;;;;;5012386;28;20591;-63
2023/02/24 11:28:39;;;;;;;35.87;20.43;;;13.70;99.90;;;;;;5012476;28;20633;-63
2023/02/24 11:31:17;;;;;;;39.33;20.60;;;13.70;99.90;;;;;;5011833;28;20655;-63
2023/02/24 11:33:53;;;;;;;36.10;20.90;;;13.80;99.90;;;;;;5012154;28;20215;-63
2023/02/24 11:36:29;;;;;;;37.03;21.23;;;13.90;99.90;;;;;;5011005;28;20667;-63
2023/02/24 11:39:05;;;;;;;41.63;22.03;;;13.90;99.90;;;;;;5012670;28;20234;-62
2023/02/24 11:41:35;;;;;;;39.20;20.60;;;14.00;99.90;;;;;;5012000;28;20245;-62
2023/02/24 11:44:10;;;;;;;36.50;20.43;;;13.80;99.90;;;;;;5012194;28;20694;-63
2023/02/24 11:46:41;;;;;;;43.70;22.37;;;13.60;99.90;;;;;;5012321;28;20194;-62
2023/02/24 11:49:17;;;;;;;40.37;21.57;;;13.50;99.90;;;;;;5013751;28;20273;-62
2023/02/24 11:51:45;;;;;;;35.73;20.23;;;13.50;99.90;;;;;;5012284;28;20260;-66
2023/02/24 11:54:16;;;;;;;39.43;19.67;;;13.60;99.90;;;;;;5012010;28;20214;-66
2023/02/24 11:56:46;;;;;;;34.27;19.93;;;13.80;99.90;;;;;;5011720;28;20265;-64
2023/02/24 11:59:20;;;;;;;37.87;20.33;;;14.00;99.90;;;;;;5012427;28;20741;-63
2023/02/24 12:01:55;;;;;;;35.60;20.33;;;14.00;99.90;;;;;;5019362;28;20252;-65
2023/02/24 12:04:28;;;;;;;37.10;19.73;;;14.00;99.90;;;;;;5033007;28;20670;-65
2023/02/24 12:07:00;;;;;;;34.53;20.27;;;14.00;99.90;;;;;;5033866;28;20210;-67
2023/02/24 12:09:32;;;;;;;37.47;19.87;;;14.10;99.90;;;;;;5032026;28;20425;-64
2023/02/24 12:12:05;;;;;;;39.67;20.50;;;14.10;99.90;;;;;;5031457;28;20233;-65
2023/02/24 12:14:39;;;;;;;35.73;19.70;;;14.20;99.90;;;;;;5031387;28;20217;-66
2023/02/24 12:17:16;;;;;;;40.77;20.77;;;14.00;99.90;;;;;;5032435;28;20636;-65
2023/02/24 12:19:56;;;;;;;38.63;21.77;;;13.70;99.90;;;;;;5031422;28;20237;-65
2023/02/24 12:22:26;;;;;;;35.17;20.97;;;13.90;99.90;;;;;;5032090;28;20228;-64
2023/02/24 12:24:53;;;;;;;40.43;20.83;;;14.20;99.90;;;;;;5032076;28;20233;-64
2023/02/24 12:27:38;;;;;;;35.70;20.63;;;14.20;99.90;;;;;;5034303;28;20210;-67
2023/02/24 12:30:32;;;;;;;35.87;19.97;;;14.00;99.90;;;;;;5030633;28;20222;-66
2023/02/24 12:33:11;;;;;;;35.13;20.17;;;14.30;99.90;;;;;;5031137;28;20250;-69
2023/02/24 12:35:44;;;;;;;39.83;20.73;;;14.60;99.90;;;;;;5029963;28;20242;-65
2023/02/24 12:38:26;;;;;;;37.87;19.60;;;14.60;99.90;;;;;;5030871;28;20213;-68
2023/02/24 12:40:58;;;;;;;33.97;20.00;;;14.70;99.90;;;;;;5030856;28;20263;-65
2023/02/24 12:43:32;;;;;;;36.63;19.43;;;14.80;99.90;;;;;;5031397;28;20601;-68
2023/02/24 12:46:06;;;;;;;35.63;20.70;;;14.90;99.90;;;;;;5030984;28;20213;-65
2023/02/24 12:48:58;;;;;;;35.33;20.63;;;15.00;99.90;;;;;;5036450;28;20743;-65
2023/02/24 12:51:33;;;;;;;40.80;20.50;;;15.20;99.90;;;;;;5037808;28;20272;-72
2023/02/24 12:54:04;;;;;;;35.47;20.23;;;15.50;99.90;;;;;;5037654;28;20225;-64
2023/02/24 12:56:39;;;;;;;38.43;20.77;;;15.70;99.90;;;;;;5037766;28;20301;-66
2023/02/24 12:59:08;;;;;;;35.42;20.13;;;15.70;99.90;;;;;;5037253;28;20229;-67
2023/02/24 13:01:45;;;;;;;34.60;19.15;;;15.80;99.90;;;;;;5035457;28;20686;-67
2023/02/24 13:04:29;;;;;;;35.85;19.88;;;15.80;99.90;;;;;;5037975;28;20229;-67
2023/02/24 13:07:08;;;;;;;37.63;20.48;;;15.90;99.90;;;;;;5036608;28;20205;-65
2023/02/24 13:09:46;;;;;;;37.15;19.88;;;16.00;99.90;;;;;;5036060;28;20247;-63